sensor_id;sensor_type;location;lat;lon;timestamp;temperature;humidity
60495;DHT22;46342;49.046;11.920;2022-08-04T07:22:51;26.10;45.00
60495;DHT22;46342;49.046;11.920;2022-08-04T07:25:17;25.10;44.20
60495;DHT22;46342;49.046;11.920;2022-08-04T07:27:43;25.30;44.20
60495;DHT22;46342;49.046;11.920;2022-08-04T07:30:08;25.40;44.10
60495;DHT22;46342;49.046;11.920;2022-08-04T07:32:34;25.50;44.00
60495;DHT22;46342;49.046;11.920;2022-08-04T07:35:00;25.60;43.90
60495;DHT22;46342;49.046;11.920;2022-08-04T07:37:26;25.80;44.00
60495;DHT22;46342;49.046;11.920;2022-08-04T07:39:51;25.90;43.90
60495;DHT22;46342;49.046;11.920;2022-08-04T07:42:17;26.00;43.70
60495;DHT22;46342;49.046;11.920;2022-08-04T07:44:43;26.10;43.70
60495;DHT22;46342;49.046;11.920;2022-08-04T07:47:09;26.20;43.70
60495;DHT22;46342;49.046;11.920;2022-08-04T07:49:34;26.40;43.70
60495;DHT22;46342;49.046;11.920;2022-08-04T07:52:01;26.60;43.00
60495;DHT22;46342;49.046;11.920;2022-08-04T07:54:26;26.60;44.20
60495;DHT22;46342;49.046;11.920;2022-08-04T07:56:52;26.80;43.50
60495;DHT22;46342;49.046;11.920;2022-08-04T07:59:18;26.90;43.40
60495;DHT22;46342;49.046;11.920;2022-08-04T08:01:45;27.00;43.30
60495;DHT22;46342;49.046;11.920;2022-08-04T08:04:11;27.20;43.20
60495;DHT22;46342;49.046;11.920;2022-08-04T08:06:37;27.20;43.10
60495;DHT22;46342;49.046;11.920;2022-08-04T08:11:33;27.50;42.90
60495;DHT22;46342;49.046;11.920;2022-08-04T08:13:58;27.60;42.80
60495;DHT22;46342;49.046;11.920;2022-08-04T08:16:24;27.70;42.70
60495;DHT22;46342;49.046;11.920;2022-08-04T08:18:50;27.90;42.70
60495;DHT22;46342;49.046;11.920;2022-08-04T08:21:18;28.00;42.60
60495;DHT22;46342;49.046;11.920;2022-08-04T08:23:43;28.10;42.50
60495;DHT22;46342;49.046;11.920;2022-08-04T08:26:09;28.20;42.40
60495;DHT22;46342;49.046;11.920;2022-08-04T08:28:35;28.30;42.40
60495;DHT22;46342;49.046;11.920;2022-08-04T08:31:00;28.50;42.30
60495;DHT22;46342;49.046;11.920;2022-08-04T08:33:26;28.60;42.20
60495;DHT22;46342;49.046;11.920;2022-08-04T08:38:18;28.80;41.90
60495;DHT22;46342;49.046;11.920;2022-08-04T08:40:47;28.90;41.80
60495;DHT22;46342;49.046;11.920;2022-08-04T08:48:32;29.30;41.50
60495;DHT22;46342;49.046;11.920;2022-08-04T08:56:10;29.60;41.20
60495;DHT22;46342;49.046;11.920;2022-08-04T09:03:40;30.00;40.90
60495;DHT22;46342;49.046;11.920;2022-08-04T09:18:50;30.60;40.30
60495;DHT22;46342;49.046;11.920;2022-08-04T09:21:34;30.70;39.60
60495;DHT22;46342;49.046;11.920;2022-08-04T17:31:23;38.20;26.10
60495;DHT22;46342;49.046;11.920;2022-08-04T17:33:51;39.20;26.70
60495;DHT22;46342;49.046;11.920;2022-08-04T17:36:17;39.00;26.60
60495;DHT22;46342;49.046;11.920;2022-08-04T17:38:49;38.90;26.80
60495;DHT22;46342;49.046;11.920;2022-08-04T17:41:19;38.70;26.80
60495;DHT22;46342;49.046;11.920;2022-08-04T17:43:47;38.50;26.80
60495;DHT22;46342;49.046;11.920;2022-08-04T17:48:58;38.20;26.90
60495;DHT22;46342;49.046;11.920;2022-08-04T17:51:58;38.10;27.00
60495;DHT22;46342;49.046;11.920;2022-08-04T17:54:20;37.80;27.10
60495;DHT22;46342;49.046;11.920;2022-08-04T17:56:47;37.70;27.20
60495;DHT22;46342;49.046;11.920;2022-08-04T17:59:18;37.50;27.20
60495;DHT22;46342;49.046;11.920;2022-08-04T18:01:45;37.40;27.30
60495;DHT22;46342;49.046;11.920;2022-08-04T18:04:24;37.30;27.40
60495;DHT22;46342;49.046;11.920;2022-08-04T18:06:50;37.10;27.30
60495;DHT22;46342;49.046;11.920;2022-08-04T18:11:50;36.80;27.40
60495;DHT22;46342;49.046;11.920;2022-08-04T18:14:16;36.70;27.50
60495;DHT22;46342;49.046;11.920;2022-08-04T18:16:42;36.50;27.60
60495;DHT22;46342;49.046;11.920;2022-08-04T18:19:15;36.40;27.70
60495;DHT22;46342;49.046;11.920;2022-08-04T18:21:40;36.30;27.80
60495;DHT22;46342;49.046;11.920;2022-08-04T18:24:06;36.10;27.80
60495;DHT22;46342;49.046;11.920;2022-08-04T18:26:31;35.90;27.80
60495;DHT22;46342;49.046;11.920;2022-08-04T18:28:57;35.90;28.00
60495;DHT22;46342;49.046;11.920;2022-08-04T18:31:23;35.70;28.00
60495;DHT22;46342;49.046;11.920;2022-08-04T18:33:48;37.30;28.80
60495;DHT22;46342;49.046;11.920;2022-08-04T18:36:14;35.50;28.20
60495;DHT22;46342;49.046;11.920;2022-08-04T18:38:39;35.40;28.20
60495;DHT22;46342;49.046;11.920;2022-08-04T18:41:05;35.20;28.20
60495;DHT22;46342;49.046;11.920;2022-08-04T18:43:30;35.10;28.30
60495;DHT22;46342;49.046;11.920;2022-08-04T18:45:56;34.90;28.30
60495;DHT22;46342;49.046;11.920;2022-08-04T18:48:22;34.80;28.40
60495;DHT22;46342;49.046;11.920;2022-08-04T18:50:47;34.70;28.40
60495;DHT22;46342;49.046;11.920;2022-08-04T18:53:14;34.60;28.50
60495;DHT22;46342;49.046;11.920;2022-08-04T18:55:40;34.40;28.50
60495;DHT22;46342;49.046;11.920;2022-08-04T18:58:05;34.30;28.60
60495;DHT22;46342;49.046;11.920;2022-08-04T19:00:31;34.10;28.70
60495;DHT22;46342;49.046;11.920;2022-08-04T19:02:56;34.00;28.70
60495;DHT22;46342;49.046;11.920;2022-08-04T19:05:21;33.90;28.80
60495;DHT22;46342;49.046;11.920;2022-08-04T19:07:47;33.80;28.90
60495;DHT22;46342;49.046;11.920;2022-08-04T19:10:12;33.70;28.90
60495;DHT22;46342;49.046;11.920;2022-08-04T19:12:38;33.50;28.90
60495;DHT22;46342;49.046;11.920;2022-08-04T19:15:03;33.50;29.00
60495;DHT22;46342;49.046;11.920;2022-08-04T19:17:29;33.30;29.10
60495;DHT22;46342;49.046;11.920;2022-08-04T19:19:55;33.20;29.10
60495;DHT22;46342;49.046;11.920;2022-08-04T19:22:23;33.10;29.60
60495;DHT22;46342;49.046;11.920;2022-08-04T19:24:48;33.00;29.20
60495;DHT22;46342;49.046;11.920;2022-08-04T19:27:14;32.90;29.20
60495;DHT22;46342;49.046;11.920;2022-08-04T19:29:39;32.80;29.30
60495;DHT22;46342;49.046;11.920;2022-08-04T19:32:05;32.70;29.30
60495;DHT22;46342;49.046;11.920;2022-08-04T19:34:34;32.60;29.40
60495;DHT22;46342;49.046;11.920;2022-08-04T19:36:59;32.50;29.40
60495;DHT22;46342;49.046;11.920;2022-08-04T19:39:25;32.40;29.50
60495;DHT22;46342;49.046;11.920;2022-08-04T19:41:50;32.30;29.50
60495;DHT22;46342;49.046;11.920;2022-08-04T19:44:16;32.20;29.50
60495;DHT22;46342;49.046;11.920;2022-08-04T19:46:41;32.10;29.60
60495;DHT22;46342;49.046;11.920;2022-08-04T19:49:11;32.00;29.60
60495;DHT22;46342;49.046;11.920;2022-08-04T19:51:36;31.90;29.70
60495;DHT22;46342;49.046;11.920;2022-08-04T19:54:03;31.90;29.70
60495;DHT22;46342;49.046;11.920;2022-08-04T19:56:29;31.80;29.80
60495;DHT22;46342;49.046;11.920;2022-08-04T19:58:54;31.70;29.80
60495;DHT22;46342;49.046;11.920;2022-08-04T20:01:20;31.60;29.80
60495;DHT22;46342;49.046;11.920;2022-08-04T20:03:45;31.50;29.90
60495;DHT22;46342;49.046;11.920;2022-08-04T20:06:11;31.50;30.00
60495;DHT22;46342;49.046;11.920;2022-08-04T20:08:37;31.40;29.90
60495;DHT22;46342;49.046;11.920;2022-08-04T20:11:02;31.30;30.00
60495;DHT22;46342;49.046;11.920;2022-08-04T20:13:28;31.20;30.00
60495;DHT22;46342;49.046;11.920;2022-08-04T20:15:53;31.10;30.00
60495;DHT22;46342;49.046;11.920;2022-08-04T20:18:19;31.10;30.00
60495;DHT22;46342;49.046;11.920;2022-08-04T20:20:44;31.00;30.10
60495;DHT22;46342;49.046;11.920;2022-08-04T20:23:09;30.90;30.20
60495;DHT22;46342;49.046;11.920;2022-08-04T20:25:35;30.80;30.30
60495;DHT22;46342;49.046;11.920;2022-08-04T20:28:00;30.70;30.30
60495;DHT22;46342;49.046;11.920;2022-08-04T20:30:27;30.70;30.40
60495;DHT22;46342;49.046;11.920;2022-08-04T20:32:53;30.60;30.50
60495;DHT22;46342;49.046;11.920;2022-08-04T20:35:18;30.50;30.50
60495;DHT22;46342;49.046;11.920;2022-08-04T20:37:50;30.50;30.60
60495;DHT22;46342;49.046;11.920;2022-08-04T20:40:15;30.40;30.60
60495;DHT22;46342;49.046;11.920;2022-08-04T20:42:41;30.30;30.70
60495;DHT22;46342;49.046;11.920;2022-08-04T20:45:06;30.30;30.80
60495;DHT22;46342;49.046;11.920;2022-08-04T20:47:32;30.20;31.00
60495;DHT22;46342;49.046;11.920;2022-08-04T20:49:57;30.10;31.00
60495;DHT22;46342;49.046;11.920;2022-08-04T20:52:23;30.10;31.10
60495;DHT22;46342;49.046;11.920;2022-08-04T20:54:49;30.00;31.10
60495;DHT22;46342;49.046;11.920;2022-08-04T20:57:15;29.90;31.20
60495;DHT22;46342;49.046;11.920;2022-08-04T20:59:40;29.90;31.30
60495;DHT22;46342;49.046;11.920;2022-08-04T21:02:06;29.80;31.40
60495;DHT22;46342;49.046;11.920;2022-08-04T21:04:32;29.70;31.40
60495;DHT22;46342;49.046;11.920;2022-08-04T21:07:07;29.70;31.50
60495;DHT22;46342;49.046;11.920;2022-08-04T21:09:33;29.60;31.50
60495;DHT22;46342;49.046;11.920;2022-08-04T21:11:58;29.60;31.60
60495;DHT22;46342;49.046;11.920;2022-08-04T21:14:24;29.50;31.70
60495;DHT22;46342;49.046;11.920;2022-08-04T21:16:50;29.40;31.70
60495;DHT22;46342;49.046;11.920;2022-08-04T21:19:16;29.40;31.80
60495;DHT22;46342;49.046;11.920;2022-08-04T21:21:41;29.30;31.90
60495;DHT22;46342;49.046;11.920;2022-08-04T21:24:08;29.30;31.90
60495;DHT22;46342;49.046;11.920;2022-08-04T21:26:33;29.20;32.00
60495;DHT22;46342;49.046;11.920;2022-08-04T21:28:59;29.10;32.00
60495;DHT22;46342;49.046;11.920;2022-08-04T21:31:24;29.10;32.10
60495;DHT22;46342;49.046;11.920;2022-08-04T21:33:50;29.00;32.10
60495;DHT22;46342;49.046;11.920;2022-08-04T21:36:15;29.00;32.30
60495;DHT22;46342;49.046;11.920;2022-08-04T21:38:41;28.90;32.30
60495;DHT22;46342;49.046;11.920;2022-08-04T21:41:07;28.90;32.40
60495;DHT22;46342;49.046;11.920;2022-08-04T21:43:32;28.80;32.40
60495;DHT22;46342;49.046;11.920;2022-08-04T21:45:58;28.80;32.50
60495;DHT22;46342;49.046;11.920;2022-08-04T21:48:23;28.70;32.50
60495;DHT22;46342;49.046;11.920;2022-08-04T21:50:49;28.70;32.70
60495;DHT22;46342;49.046;11.920;2022-08-04T21:53:14;28.60;32.70
60495;DHT22;46342;49.046;11.920;2022-08-04T21:55:40;28.60;32.80
60495;DHT22;46342;49.046;11.920;2022-08-04T21:58:06;28.50;32.80
60495;DHT22;46342;49.046;11.920;2022-08-04T22:00:31;28.50;33.00
60495;DHT22;46342;49.046;11.920;2022-08-04T22:02:57;28.40;33.00
60495;DHT22;46342;49.046;11.920;2022-08-04T22:05:22;28.40;33.00
60495;DHT22;46342;49.046;11.920;2022-08-04T22:07:49;28.30;33.10
60495;DHT22;46342;49.046;11.920;2022-08-04T22:10:14;28.20;33.10
60495;DHT22;46342;49.046;11.920;2022-08-04T22:12:39;28.20;33.20
60495;DHT22;46342;49.046;11.920;2022-08-04T22:15:05;28.10;33.20
60495;DHT22;46342;49.046;11.920;2022-08-04T22:17:32;28.10;33.30
60495;DHT22;46342;49.046;11.920;2022-08-04T22:19:58;28.00;33.30
60495;DHT22;46342;49.046;11.920;2022-08-04T22:22:24;28.00;33.40
60495;DHT22;46342;49.046;11.920;2022-08-04T22:24:50;27.90;33.50
60495;DHT22;46342;49.046;11.920;2022-08-04T22:27:15;27.90;33.60
60495;DHT22;46342;49.046;11.920;2022-08-04T22:29:59;27.80;33.60
60495;DHT22;46342;49.046;11.920;2022-08-04T22:32:27;27.80;33.70
60495;DHT22;46342;49.046;11.920;2022-08-04T22:34:53;27.70;33.80
60495;DHT22;46342;49.046;11.920;2022-08-04T22:37:18;27.70;33.90
60495;DHT22;46342;49.046;11.920;2022-08-04T22:39:44;27.60;33.80
60495;DHT22;46342;49.046;11.920;2022-08-04T22:42:09;27.50;33.90
60495;DHT22;46342;49.046;11.920;2022-08-04T22:44:35;27.50;34.00
60495;DHT22;46342;49.046;11.920;2022-08-04T22:47:00;27.40;34.00
60495;DHT22;46342;49.046;11.920;2022-08-04T22:49:26;27.40;34.10
60495;DHT22;46342;49.046;11.920;2022-08-04T22:51:51;27.40;34.20
60495;DHT22;46342;49.046;11.920;2022-08-04T22:54:16;27.30;34.20
60495;DHT22;46342;49.046;11.920;2022-08-04T22:56:42;27.30;34.30
60495;DHT22;46342;49.046;11.920;2022-08-04T22:59:07;27.20;34.30
60495;DHT22;46342;49.046;11.920;2022-08-04T23:01:36;27.20;34.40
60495;DHT22;46342;49.046;11.920;2022-08-04T23:04:01;27.10;34.50
60495;DHT22;46342;49.046;11.920;2022-08-04T23:06:27;27.10;34.60
60495;DHT22;46342;49.046;11.920;2022-08-04T23:08:52;27.10;34.70
60495;DHT22;46342;49.046;11.920;2022-08-04T23:11:18;27.00;34.70
60495;DHT22;46342;49.046;11.920;2022-08-04T23:13:43;27.00;34.80
60495;DHT22;46342;49.046;11.920;2022-08-04T23:16:09;26.90;34.80
60495;DHT22;46342;49.046;11.920;2022-08-04T23:18:35;26.90;34.80
60495;DHT22;46342;49.046;11.920;2022-08-04T23:21:04;26.80;34.90
60495;DHT22;46342;49.046;11.920;2022-08-04T23:23:30;26.80;35.60
60495;DHT22;46342;49.046;11.920;2022-08-04T23:25:55;26.80;35.10
60495;DHT22;46342;49.046;11.920;2022-08-04T23:28:21;26.70;35.10
60495;DHT22;46342;49.046;11.920;2022-08-04T23:30:46;26.70;35.20
60495;DHT22;46342;49.046;11.920;2022-08-04T23:33:12;26.60;35.20
60495;DHT22;46342;49.046;11.920;2022-08-04T23:35:37;26.60;35.30
60495;DHT22;46342;49.046;11.920;2022-08-04T23:38:03;26.50;35.40
60495;DHT22;46342;49.046;11.920;2022-08-04T23:40:28;26.50;35.40
60495;DHT22;46342;49.046;11.920;2022-08-04T23:42:55;26.50;35.40
60495;DHT22;46342;49.046;11.920;2022-08-04T23:45:21;26.50;35.50
60495;DHT22;46342;49.046;11.920;2022-08-04T23:47:46;26.40;35.50
60495;DHT22;46342;49.046;11.920;2022-08-04T23:50:12;26.40;35.60
60495;DHT22;46342;49.046;11.920;2022-08-04T23:52:38;26.30;35.70
60495;DHT22;46342;49.046;11.920;2022-08-04T23:55:03;26.30;35.70
60495;DHT22;46342;49.046;11.920;2022-08-04T23:57:29;26.30;35.80
60495;DHT22;46342;49.046;11.920;2022-08-04T23:59:54;26.30;35.90
